Osgood, IN

11:08 AM EDT dna 18 Apríl, 2015 (GMT -0400)
APRSWXNET | | Change Station
CLOSE
Current Station
Personal Weather Stations
Location: Osgood, IN
Nad. výška:: 935 ft
Najbližšie meteo stanice

Elev 935 ft 39.13 °N, 85.29 °W | Updated 24 minutes ago

Jasno
Jasno
70 °F
Feels Like 70 °F
N
0
Vietor meniaci sa Vietor from JV
Gusts 0.0 mph

Dnes
High -- | Low -- °F
--% Chance of Precip.
Yesterday
High -- | Low -- °F
Precip. -- in
7:00 AM 8:21 PM
Ubúdajúci mesiac, 4. fáza, 0% visible
Tlak 30.06 in
Viditeľnosť 10.0 mile
Oblačnost Ojedinelé mraky 7000 ft
Rosný bod 48 °F
Vlhkosť 46%
Rainfall in
Výška snehu Not available.
UV 5 out of 12
Pollen 11.40 out of 12
Air Quality Not available.
Flu Activity Local Activity
METAR KBAK 181450Z 11003KT 10SM SCT070 19/07 A3006

More Conditions Fewer Conditions

Tlak 30.06 in
Viditeľnosť 10.0 mile
Oblačnost Ojedinelé mraky 7000 ft
Rosný bod 48 °F
Vlhkosť 46%
Rainfall in
Výška snehu Not available.
UV 5 out of 12
Pollen 11.40 out of 12
Air Quality Not available.
Flu Activity Local Activity
METAR KBAK 181450Z 11003KT 10SM SCT070 19/07 A3006

More Conditions Fewer Conditions

10-Day Weather Forecast

Almanac

Astronómia

Apr. 18, 2015 Východ Západ
Aktuálny čas
Civil Twilight
Nautical Twilight
Astronomical Twilight
Mesiac
Length Of Visible Light
Dĺžka dňa
Tomorrow will be .
, % of the Moon is Illuminated

Today's Extremes

State Highs State Lows

Community

WunderPhotos

Upload Photos

1,814,424 photos uploaded!

WunderBlogs® & News

Nearby

Air Quality

  Air Quality AQ Index Pollutant
Not available.

Výska snehu

Station Depth Nad. výška:

Aktivita zemetrasenia

Mesto Distance Mag. Time & Date
Minimum magnitude displayed is 2.5.

Coastal Water Temperatures

Miesto Teplota

Stations

Najbližšie meteo stanice

Station Location Temp Pocitová teplota Rosný bod Vlhkosť Vietor Precip. Elev Cas aktualizacie Type